createdAt,value
2023-05-24T00:00:22.228Z,101258.75
2023-05-24T00:02:49.995Z,101253.38
2023-05-24T00:05:18.838Z,101268.56
2023-05-24T00:07:46.168Z,101265.03
2023-05-24T00:10:13.481Z,101266.00
2023-05-24T00:12:40.710Z,101264.03
2023-05-24T00:15:08.540Z,101263.19
2023-05-24T00:17:41.452Z,101268.69
2023-05-24T00:20:12.184Z,101268.69
2023-05-24T00:22:40.274Z,101271.13
2023-05-24T00:25:08.138Z,101277.63
2023-05-24T00:27:37.358Z,101273.22
2023-05-24T00:30:07.458Z,101274.81
2023-05-24T00:32:34.821Z,101274.06
2023-05-24T00:35:02.053Z,101274.91
2023-05-24T00:37:29.712Z,101266.72
2023-05-24T00:39:56.973Z,101264.16
2023-05-24T00:42:26.449Z,101258.75
2023-05-24T00:44:53.736Z,101259.50
2023-05-24T00:47:21.083Z,101263.03
2023-05-24T00:49:48.300Z,101269.44
2023-05-24T00:52:16.554Z,101269.44
2023-05-24T00:54:44.135Z,101274.81
2023-05-24T00:57:14.003Z,101265.03
2023-05-24T00:59:41.494Z,101260.50
2023-05-24T01:02:08.720Z,101268.44
2023-05-24T01:04:38.186Z,101269.53
2023-05-24T01:07:32.804Z,101271.13
2023-05-24T01:10:04.245Z,101274.06
2023-05-24T01:12:59.706Z,101280.91
2023-05-24T01:15:51.271Z,101267.56
2023-05-24T01:18:30.475Z,101265.72
2023-05-24T01:21:26.883Z,101272.22
2023-05-24T01:24:02.274Z,101272.97
2023-05-24T01:26:58.467Z,101275.66
2023-05-24T01:29:27.278Z,101278.34
2023-05-24T01:31:54.733Z,101277.50
2023-05-24T01:34:24.559Z,101278.50
2023-05-24T01:36:51.799Z,101281.19
2023-05-24T01:39:20.299Z,101274.91
2023-05-24T01:42:08.739Z,101279.19
2023-05-24T01:44:48.217Z,101277.50
2023-05-24T01:47:30.996Z,101272.38
2023-05-24T01:50:02.902Z,101267.72
2023-05-24T01:52:32.264Z,101270.41
2023-05-24T01:55:00.473Z,101268.69
2023-05-24T01:57:28.170Z,101276.78
2023-05-24T01:59:56.283Z,101280.31
2023-05-24T02:02:23.821Z,101286.56
2023-05-24T02:04:51.196Z,101278.50
2023-05-24T02:07:19.309Z,101282.88
2023-05-24T02:09:46.555Z,101286.56
2023-05-24T02:12:13.811Z,101280.47
2023-05-24T02:14:42.665Z,101270.41
2023-05-24T02:17:10.050Z,101279.19
2023-05-24T02:19:37.373Z,101277.63
2023-05-24T02:22:04.699Z,101275.81
2023-05-24T02:24:31.919Z,101275.91
2023-05-24T02:26:59.154Z,101276.78
2023-05-24T02:29:26.373Z,101278.63
2023-05-24T02:31:56.513Z,101279.47
2023-05-24T02:34:24.223Z,101282.16
2023-05-24T02:36:52.050Z,101281.44
2023-05-24T02:39:19.306Z,101277.75
2023-05-24T02:41:46.594Z,101268.69
2023-05-24T02:44:13.827Z,101274.06
2023-05-24T02:46:41.264Z,101275.06
2023-05-24T02:49:09.929Z,101285.84
2023-05-24T02:51:37.458Z,101271.53
2023-05-24T02:54:04.817Z,101275.19
2023-05-24T02:56:32.128Z,101274.34
2023-05-24T02:58:59.368Z,101277.75
2023-05-24T03:01:27.929Z,101275.91
2023-05-24T03:03:55.294Z,101275.06
2023-05-24T03:06:25.619Z,101271.53
2023-05-24T03:08:53.004Z,101276.06
2023-05-24T03:11:24.080Z,101285.00
2023-05-24T03:13:51.320Z,101280.56
2023-05-24T03:16:19.808Z,101285.00
2023-05-24T03:18:47.371Z,101282.31
2023-05-24T03:21:14.745Z,101273.38
2023-05-24T03:23:42.035Z,101282.41
2023-05-24T03:26:09.674Z,101281.56
2023-05-24T03:28:36.966Z,101287.81
2023-05-24T03:31:04.424Z,101292.22
2023-05-24T03:33:32.162Z,101286.09
2023-05-24T03:36:00.429Z,101280.72
2023-05-24T03:38:27.706Z,101286.09
2023-05-24T03:40:54.964Z,101293.34
2023-05-24T03:43:22.188Z,101286.22
2023-05-24T03:45:49.498Z,101290.66
2023-05-24T03:48:16.946Z,101298.56
2023-05-24T03:50:44.442Z,101299.56
2023-05-24T03:53:11.890Z,101303.25
2023-05-24T03:55:41.501Z,101300.41
2023-05-24T03:58:08.747Z,101300.56
2023-05-24T04:00:36.134Z,101300.41
2023-05-24T04:03:03.742Z,101306.81
2023-05-24T04:05:31.070Z,101307.66
2023-05-24T04:07:58.560Z,101304.97
2023-05-24T04:10:25.904Z,101307.78
2023-05-24T04:12:53.188Z,101308.66
2023-05-24T04:15:21.292Z,101306.06
2023-05-24T04:17:48.744Z,101306.91
2023-05-24T04:20:16.105Z,101305.94
2023-05-24T04:22:43.460Z,101309.59
2023-05-24T04:25:15.796Z,101308.91
2023-05-24T04:27:43.141Z,101312.31
2023-05-24T04:30:10.856Z,101315.16
2023-05-24T04:32:38.146Z,101318.53
2023-05-24T04:35:05.822Z,101323.06
2023-05-24T04:37:33.919Z,101321.22
2023-05-24T04:40:01.396Z,101316.84
2023-05-24T04:42:32.211Z,101318.69
2023-05-24T04:44:59.867Z,101321.38
2023-05-24T04:47:27.140Z,101326.75
2023-05-24T04:49:54.438Z,101331.16
2023-05-24T04:52:21.781Z,101332.16
2023-05-24T04:54:49.954Z,101329.47
2023-05-24T04:57:17.257Z,101335.84
2023-05-24T04:59:44.959Z,101340.34
2023-05-24T05:02:12.252Z,101344.63
2023-05-24T05:04:39.529Z,101345.47
2023-05-24T05:07:06.952Z,101350.00
2023-05-24T05:09:34.179Z,101347.47
2023-05-24T05:12:01.434Z,101351.00
2023-05-24T05:14:29.122Z,101352.84
2023-05-24T05:16:56.566Z,101348.41
2023-05-24T05:19:23.978Z,101353.81
2023-05-24T05:21:51.689Z,101364.00
2023-05-24T05:24:19.450Z,101361.34
2023-05-24T05:26:47.289Z,101365.53
2023-05-24T05:29:14.550Z,101369.03
2023-05-24T05:31:41.782Z,101376.88
2023-05-24T05:34:10.111Z,101380.44
2023-05-24T05:36:42.534Z,101380.78
2023-05-24T05:39:10.040Z,101372.72
2023-05-24T05:41:45.501Z,101384.97
2023-05-24T05:44:13.772Z,101383.97
2023-05-24T05:46:43.777Z,101377.16
2023-05-24T05:49:11.414Z,101380.09
2023-05-24T05:51:39.148Z,101383.50
2023-05-24T05:54:06.659Z,101388.28
2023-05-24T05:56:38.221Z,101387.66
2023-05-24T05:59:05.570Z,101395.59
2023-05-24T06:01:33.074Z,101401.59
2023-05-24T06:04:00.373Z,101399.13
2023-05-24T06:06:27.636Z,101401.13
2023-05-24T06:08:54.865Z,101409.44
2023-05-24T06:11:22.121Z,101404.16
2023-05-24T06:13:49.386Z,101412.34
2023-05-24T06:16:16.673Z,101408.66
2023-05-24T06:18:57.272Z,101412.06
2023-05-24T06:21:32.254Z,101418.53
2023-05-24T06:23:59.779Z,101409.66
2023-05-24T06:26:27.188Z,101413.69
2023-05-24T06:28:54.583Z,101414.91
2023-05-24T06:31:22.134Z,101418.94
2023-05-24T06:34:02.682Z,101421.38
2023-05-24T06:36:34.004Z,101421.25
2023-05-24T06:39:01.553Z,101419.31
2023-05-24T06:41:29.105Z,101424.59
2023-05-24T06:43:56.318Z,101425.28
2023-05-24T06:46:23.618Z,101424.44
2023-05-24T06:48:51.086Z,101429.72
2023-05-24T06:51:18.444Z,101431.53
2023-05-24T06:53:45.694Z,101435.09
2023-05-24T06:56:13.044Z,101435.69
2023-05-24T06:58:40.573Z,101440.09
2023-05-24T07:01:08.763Z,101440.34
2023-05-24T07:03:36.283Z,101439.00
2023-05-24T07:06:04.053Z,101440.97
2023-05-24T07:08:31.411Z,101436.53
2023-05-24T07:10:58.672Z,101452.81
2023-05-24T07:13:26.025Z,101440.72
2023-05-24T07:15:53.305Z,101442.78
2023-05-24T07:18:20.767Z,101450.88
2023-05-24T07:20:48.194Z,101457.34
2023-05-24T07:23:15.768Z,101456.34
2023-05-24T07:25:42.999Z,101466.16
2023-05-24T07:28:10.240Z,101461.00
2023-05-24T07:30:39.385Z,101463.81
2023-05-24T07:33:06.718Z,101474.56
2023-05-24T07:35:34.018Z,101468.34
2023-05-24T07:38:01.302Z,101473.72
2023-05-24T07:40:28.563Z,101481.69
2023-05-24T07:42:56.129Z,101481.69
2023-05-24T07:45:23.483Z,101484.72
2023-05-24T07:47:50.873Z,101486.44
2023-05-24T07:50:18.794Z,101485.56
2023-05-24T07:52:48.860Z,101491.81
2023-05-24T07:55:16.106Z,101491.81
2023-05-24T07:57:43.326Z,101486.69
2023-05-24T08:00:14.683Z,101491.94
2023-05-24T08:02:44.356Z,101501.69
2023-05-24T08:05:13.083Z,101493.78
2023-05-24T08:07:41.684Z,101496.56
2023-05-24T08:10:14.058Z,101492.69
2023-05-24T08:12:41.803Z,101498.28
2023-05-24T08:15:09.466Z,101497.44
2023-05-24T08:17:37.108Z,101509.28
2023-05-24T08:20:13.770Z,101497.53
2023-05-24T08:22:41.310Z,101507.44
2023-05-24T08:25:09.146Z,101502.81
2023-05-24T08:27:37.250Z,101515.28
2023-05-24T08:30:04.719Z,101509.16
2023-05-24T08:32:32.425Z,101509.16
2023-05-24T08:35:17.579Z,101506.47
2023-05-24T08:37:47.947Z,101506.47
2023-05-24T08:40:15.471Z,101505.50
2023-05-24T08:42:42.950Z,101508.19
2023-05-24T08:45:12.866Z,101507.97
2023-05-24T08:47:42.851Z,101506.38
2023-05-24T08:50:10.716Z,101514.19
2023-05-24T08:52:38.260Z,101513.34
2023-05-24T08:55:06.015Z,101519.56
2023-05-24T08:57:39.918Z,101516.13
2023-05-24T09:00:12.789Z,101519.81
2023-05-24T09:02:42.161Z,101515.28
2023-05-24T09:05:11.930Z,101527.88
2023-05-24T09:07:42.421Z,101524.94
2023-05-24T09:10:10.581Z,101530.44
2023-05-24T09:12:39.598Z,101541.19
2023-05-24T09:15:08.721Z,101533.59
2023-05-24T09:17:37.860Z,101527.75
2023-05-24T09:20:10.592Z,101528.81
2023-05-24T09:22:41.164Z,101531.38
2023-05-24T09:25:11.089Z,101533.72
2023-05-24T09:27:38.864Z,101535.06
2023-05-24T09:30:10.681Z,101531.63
2023-05-24T09:32:38.219Z,101529.56
2023-05-24T09:35:09.407Z,101533.59
2023-05-24T09:37:38.781Z,101524.34
2023-05-24T09:40:10.942Z,101530.91
2023-05-24T09:42:38.408Z,101533.13
2023-05-24T09:45:08.633Z,101538.13
2023-05-24T09:47:37.524Z,101539.19
2023-05-24T09:50:05.614Z,101535.41
2023-05-24T09:52:39.681Z,101535.00
2023-05-24T09:55:17.289Z,101541.25
2023-05-24T09:57:45.590Z,101542.31
2023-05-24T10:00:16.640Z,101541.47
2023-05-24T10:02:53.408Z,101542.31
2023-05-24T10:05:21.647Z,101536.94
2023-05-24T10:07:49.558Z,101538.81
2023-05-24T10:10:18.982Z,101535.63
2023-05-24T10:12:47.620Z,101545.53
2023-05-24T10:15:14.916Z,101544.78
2023-05-24T10:17:42.255Z,101556.50
2023-05-24T10:20:12.460Z,101549.75
2023-05-24T10:22:45.413Z,101543.31
2023-05-24T10:25:23.434Z,101544.88
2023-05-24T10:27:53.697Z,101545.84
2023-05-24T10:30:36.214Z,101544.78
2023-05-24T10:33:05.727Z,101556.47
2023-05-24T10:35:33.944Z,101547.03
2023-05-24T10:38:07.417Z,101558.09
2023-05-24T10:40:34.992Z,101552.09
2023-05-24T10:43:08.208Z,101553.06
2023-05-24T10:45:38.719Z,101558.31
2023-05-24T10:48:13.349Z,101562.75
2023-05-24T10:50:41.965Z,101557.38
2023-05-24T10:53:16.972Z,101559.50
2023-05-24T10:56:00.219Z,101560.56
2023-05-24T10:59:00.349Z,101567.28
2023-05-24T11:01:32.409Z,101559.31
2023-05-24T11:04:15.723Z,101559.91
2023-05-24T11:07:03.093Z,101557.22
2023-05-24T11:09:30.553Z,101555.25
2023-05-24T11:12:07.269Z,101547.38
2023-05-24T11:14:39.737Z,101556.81
2023-05-24T11:17:08.195Z,101555.09
2023-05-24T11:19:37.395Z,101553.13
2023-05-24T11:22:09.041Z,101549.97
2023-05-24T11:24:37.003Z,101553.91
2023-05-24T11:27:04.449Z,101552.81
2023-05-24T11:29:31.779Z,101551.97
2023-05-24T11:32:05.301Z,101558.34
2023-05-24T11:34:33.737Z,101556.34
2023-05-24T11:37:02.407Z,101561.28
2023-05-24T11:39:34.441Z,101558.13
2023-05-24T11:42:02.615Z,101554.47
2023-05-24T11:44:31.827Z,101551.78
2023-05-24T11:47:00.252Z,101552.53
2023-05-24T11:49:27.744Z,101559.53
2023-05-24T11:51:56.985Z,101556.22
2023-05-24T11:54:25.230Z,101552.66
2023-05-24T11:56:54.077Z,101563.06
2023-05-24T11:59:26.445Z,101556.22
2023-05-24T12:02:05.552Z,101563.53
2023-05-24T12:04:33.304Z,101560.00
2023-05-24T12:07:01.082Z,101562.00
2023-05-24T12:09:28.718Z,101564.97
2023-05-24T12:11:58.813Z,101559.09
2023-05-24T12:14:32.771Z,101568.63
2023-05-24T12:17:00.963Z,101564.84
2023-05-24T12:19:34.845Z,101572.69
2023-05-24T12:22:07.426Z,101571.56
2023-05-24T12:24:35.774Z,101571.31
2023-05-24T12:27:07.795Z,101564.06
2023-05-24T12:29:37.137Z,101568.31
2023-05-24T12:32:12.646Z,101571.53
2023-05-24T12:34:47.699Z,101560.72
2023-05-24T12:37:15.327Z,101561.50
2023-05-24T12:39:44.250Z,101573.06
2023-05-24T12:42:16.095Z,101568.22
2023-05-24T12:44:45.087Z,101561.25
2023-05-24T12:47:12.582Z,101561.75
2023-05-24T12:49:39.826Z,101568.59
2023-05-24T12:52:07.207Z,101562.69
2023-05-24T12:54:34.549Z,101563.09
2023-05-24T12:57:03.383Z,101574.34
2023-05-24T12:59:30.779Z,101569.75
2023-05-24T13:01:58.391Z,101574.75
2023-05-24T13:04:30.524Z,101581.81
2023-05-24T13:06:57.848Z,101575.19
2023-05-24T13:09:26.047Z,101569.25
2023-05-24T13:11:55.253Z,101563.41
2023-05-24T13:14:22.751Z,101574.31
2023-05-24T13:16:50.226Z,101565.31
2023-05-24T13:19:17.780Z,101565.44
2023-05-24T13:21:45.270Z,101566.78
2023-05-24T13:24:16.797Z,101566.41
2023-05-24T13:26:44.683Z,101571.38
2023-05-24T13:31:42.533Z,101573.50
2023-05-24T13:34:11.174Z,101569.81
2023-05-24T13:36:39.152Z,101571.38
2023-05-24T13:41:40.660Z,101564.88
2023-05-24T13:44:08.572Z,101576.59
2023-05-24T13:46:36.384Z,101572.09
2023-05-24T13:49:04.425Z,101576.09
2023-05-24T13:51:31.767Z,101581.56
2023-05-24T13:53:59.615Z,101570.94
2023-05-24T13:56:32.608Z,101558.13
2023-05-24T13:59:01.412Z,101576.59
2023-05-24T14:01:29.236Z,101572.59
2023-05-24T14:03:56.455Z,101571.75
2023-05-24T14:06:23.838Z,101572.03
2023-05-24T14:08:51.180Z,101569.91
2023-05-24T14:11:19.586Z,101577.00
2023-05-24T14:16:17.293Z,101580.38
2023-05-24T14:18:45.740Z,101572.69
2023-05-24T14:21:13.035Z,101570.59
2023-05-24T14:23:41.529Z,101571.94
2023-05-24T14:26:08.820Z,101573.44
2023-05-24T14:28:36.121Z,101559.81
2023-05-24T14:31:03.421Z,101572.78
2023-05-24T14:33:30.818Z,101573.97
2023-05-24T14:35:58.077Z,101572.00
2023-05-24T14:38:25.681Z,101573.63
2023-05-24T14:40:53.094Z,101577.50
2023-05-24T14:43:20.407Z,101572.81
2023-05-24T14:45:47.931Z,101576.81
2023-05-24T14:48:16.792Z,101576.09
2023-05-24T14:50:44.156Z,101579.22
2023-05-24T14:53:12.768Z,101575.25
2023-05-24T14:55:42.235Z,101573.22
2023-05-24T14:58:11.713Z,101571.44
2023-05-24T15:00:40.612Z,101575.09
2023-05-24T15:03:10.958Z,101571.22
2023-05-24T15:05:39.257Z,101573.13
2023-05-24T15:08:07.938Z,101581.22
2023-05-24T15:10:35.581Z,101578.44
2023-05-24T15:13:03.891Z,101574.16
2023-05-24T15:15:31.497Z,101571.88
2023-05-24T15:18:00.174Z,101575.78
2023-05-24T15:20:27.854Z,101573.91
2023-05-24T15:22:55.507Z,101567.94
2023-05-24T15:25:24.057Z,101573.59
2023-05-24T15:27:52.010Z,101565.91
2023-05-24T15:30:23.954Z,101563.84
2023-05-24T15:32:51.443Z,101565.31
2023-05-24T15:35:18.979Z,101565.91
2023-05-24T15:37:46.452Z,101575.47
2023-05-24T15:40:15.189Z,101566.78
2023-05-24T15:42:42.520Z,101566.66
2023-05-24T15:45:10.683Z,101576.34
2023-05-24T15:47:40.584Z,101578.06
2023-05-24T15:50:08.884Z,101568.88
2023-05-24T15:52:36.720Z,101559.00
2023-05-24T15:55:04.477Z,101563.63
2023-05-24T15:57:32.186Z,101565.56
2023-05-24T15:59:59.683Z,101572.19
2023-05-24T16:02:27.339Z,101572.78
2023-05-24T16:04:55.524Z,101571.38
2023-05-24T16:07:26.817Z,101568.00
2023-05-24T16:09:54.242Z,101568.41
2023-05-24T16:12:21.980Z,101567.22
2023-05-24T16:14:49.476Z,101572.22
2023-05-24T16:17:16.780Z,101569.16
2023-05-24T16:19:46.412Z,101573.34
2023-05-24T16:22:14.192Z,101575.22
2023-05-24T16:24:41.917Z,101582.75
2023-05-24T16:27:09.423Z,101573.34
2023-05-24T16:29:37.281Z,101568.56
2023-05-24T16:32:05.089Z,101570.63
2023-05-24T16:34:41.494Z,101577.75
2023-05-24T16:37:19.768Z,101572.22
2023-05-24T16:39:47.025Z,101568.06
2023-05-24T16:42:14.329Z,101570.00
2023-05-24T16:44:41.645Z,101565.63
2023-05-24T16:47:09.060Z,101559.88
2023-05-24T16:49:36.478Z,101564.75
2023-05-24T16:52:03.845Z,101568.31
2023-05-24T16:54:31.253Z,101570.25
2023-05-24T16:56:58.542Z,101567.56
2023-05-24T16:59:25.867Z,101564.00
2023-05-24T17:01:53.237Z,101574.75
2023-05-24T17:04:21.073Z,101573.06
2023-05-24T17:06:48.346Z,101572.22
2023-05-24T17:09:15.928Z,101570.38
2023-05-24T17:11:43.194Z,101567.69
2023-05-24T17:14:10.547Z,101570.25
2023-05-24T17:16:37.928Z,101561.31
2023-05-24T17:19:05.685Z,101565.72
2023-05-24T17:21:33.241Z,101567.69
2023-05-24T17:24:00.931Z,101570.47
2023-05-24T17:26:28.343Z,101572.41
2023-05-24T17:28:57.046Z,101573.16
2023-05-24T17:31:24.800Z,101579.41
2023-05-24T17:33:52.360Z,101576.84
2023-05-24T17:36:22.382Z,101575.84
2023-05-24T17:38:50.317Z,101577.59
2023-05-24T17:41:17.758Z,101573.44
2023-05-24T17:43:46.342Z,101573.31
2023-05-24T17:46:14.119Z,101581.50
2023-05-24T17:48:42.901Z,101575.28
2023-05-24T17:51:11.065Z,101590.06
2023-05-24T17:53:40.882Z,101582.22
2023-05-24T17:56:08.800Z,101579.97
2023-05-24T17:58:37.159Z,101590.09
2023-05-24T18:01:10.129Z,101579.56
2023-05-24T18:03:38.968Z,101588.47
2023-05-24T18:06:07.380Z,101586.88
2023-05-24T18:08:37.752Z,101588.22
2023-05-24T18:11:08.655Z,101594.06
2023-05-24T18:13:39.556Z,101590.97
2023-05-24T18:16:07.991Z,101594.84
2023-05-24T18:18:35.588Z,101589.59
2023-05-24T18:21:02.915Z,101599.75
2023-05-24T18:23:31.189Z,101603.06
2023-05-24T18:26:00.619Z,101592.78
2023-05-24T18:28:30.292Z,101599.88
2023-05-24T18:30:57.558Z,101599.44
2023-05-24T18:33:25.047Z,101604.06
2023-05-24T18:35:52.724Z,101599.25
2023-05-24T18:38:20.031Z,101604.22
2023-05-24T18:40:47.405Z,101604.69
2023-05-24T18:43:14.971Z,101603.94
2023-05-24T18:45:42.537Z,101615.13
2023-05-24T18:48:10.237Z,101612.66
2023-05-24T18:50:37.492Z,101618.03
2023-05-24T18:53:04.773Z,101609.34
2023-05-24T18:55:32.016Z,101613.31
2023-05-24T18:57:59.358Z,101608.94
2023-05-24T19:02:38.870Z,101624.25
2023-05-24T19:05:07.263Z,101622.78
2023-05-24T19:07:35.424Z,101628.00
2023-05-24T19:10:03.028Z,101626.97
2023-05-24T19:12:30.457Z,101629.03
2023-05-24T19:14:59.781Z,101628.06
2023-05-24T19:17:27.266Z,101627.75
2023-05-24T19:19:54.637Z,101625.91
2023-05-24T19:22:22.125Z,101619.78
2023-05-24T19:24:49.553Z,101625.38
2023-05-24T19:27:16.899Z,101636.75
2023-05-24T19:29:44.365Z,101641.78
2023-05-24T19:32:11.913Z,101638.06
2023-05-24T19:34:42.420Z,101645.03
2023-05-24T19:37:10.161Z,101648.88
2023-05-24T19:39:37.991Z,101636.97
2023-05-24T19:42:06.486Z,101648.34
2023-05-24T19:44:35.441Z,101651.66
2023-05-24T19:47:02.797Z,101646.38
2023-05-24T19:49:30.410Z,101647.47
2023-05-24T19:51:57.736Z,101656.63
2023-05-24T19:54:24.987Z,101654.56
2023-05-24T19:56:52.561Z,101661.97
2023-05-24T19:59:19.848Z,101661.84
2023-05-24T20:01:47.241Z,101663.16
2023-05-24T20:04:14.706Z,101658.25
2023-05-24T20:06:42.164Z,101663.91
2023-05-24T20:09:09.506Z,101670.50
2023-05-24T20:11:36.743Z,101662.00
2023-05-24T20:14:04.385Z,101672.22
2023-05-24T20:16:31.664Z,101675.28
2023-05-24T20:18:59.085Z,101668.53
2023-05-24T20:21:26.465Z,101672.13
2023-05-24T20:23:58.493Z,101675.03
2023-05-24T20:26:26.274Z,101681.53
2023-05-24T20:28:53.895Z,101678.91
2023-05-24T20:31:21.386Z,101675.34
2023-05-24T20:33:51.434Z,101674.97
2023-05-24T20:36:18.722Z,101668.03
2023-05-24T20:38:46.014Z,101673.88
2023-05-24T20:41:13.300Z,101676.88
2023-05-24T20:43:40.581Z,101681.97
2023-05-24T20:46:07.860Z,101680.41
2023-05-24T20:48:35.319Z,101676.50
2023-05-24T20:51:02.803Z,101675.06
2023-05-24T20:53:30.021Z,101680.22
2023-05-24T20:55:57.326Z,101681.56
2023-05-24T20:58:24.755Z,101688.88
2023-05-24T21:00:51.985Z,101690.50
2023-05-24T21:03:19.247Z,101691.31
2023-05-24T21:05:46.596Z,101704.56
2023-05-24T21:08:14.212Z,101692.41
2023-05-24T21:10:42.082Z,101699.22
2023-05-24T21:13:09.409Z,101700.28
2023-05-24T21:15:36.811Z,101694.72
2023-05-24T21:18:04.672Z,101694.09
2023-05-24T21:20:32.028Z,101706.63
2023-05-24T21:23:00.066Z,101704.63
2023-05-24T21:25:27.412Z,101706.31
2023-05-24T21:27:54.641Z,101706.41
2023-05-24T21:30:21.939Z,101702.47
2023-05-24T21:32:49.218Z,101705.91
2023-05-24T21:35:16.607Z,101709.13
2023-05-24T21:37:43.835Z,101714.19
2023-05-24T21:40:11.419Z,101710.53
2023-05-24T21:42:41.986Z,101713.66
2023-05-24T21:45:09.608Z,101714.06
2023-05-24T21:47:36.939Z,101724.47
2023-05-24T21:50:05.339Z,101724.19
2023-05-24T21:52:34.166Z,101726.53
2023-05-24T21:55:02.390Z,101724.25
2023-05-24T21:57:30.046Z,101723.41
2023-05-24T21:59:57.716Z,101729.53
2023-05-24T22:02:24.955Z,101729.41
2023-05-24T22:04:52.465Z,101733.97
2023-05-24T22:07:19.927Z,101730.63
2023-05-24T22:09:47.416Z,101725.78
2023-05-24T22:12:14.797Z,101728.03
2023-05-24T22:14:42.295Z,101737.38
2023-05-24T22:17:09.566Z,101742.22
2023-05-24T22:19:39.860Z,101738.38
2023-05-24T22:22:08.320Z,101741.72
2023-05-24T22:24:36.149Z,101742.84
2023-05-24T22:27:04.229Z,101736.56
2023-05-24T22:29:31.524Z,101739.13
2023-05-24T22:31:58.843Z,101736.34
2023-05-24T22:34:27.798Z,101741.81
2023-05-24T22:36:57.210Z,101739.25
2023-05-24T22:39:24.870Z,101741.81
2023-05-24T22:41:52.727Z,101744.41
2023-05-24T22:44:20.073Z,101738.06
2023-05-24T22:46:50.404Z,101747.81
2023-05-24T22:49:19.379Z,101736.13
2023-05-24T22:51:48.376Z,101746.88
2023-05-24T22:54:16.703Z,101746.53
2023-05-24T22:56:44.538Z,101743.00
2023-05-24T22:59:12.063Z,101738.38
2023-05-24T23:01:42.375Z,101745.47
2023-05-24T23:04:20.449Z,101747.94
2023-05-24T23:06:52.143Z,101746.97
2023-05-24T23:09:28.905Z,101745.13
2023-05-24T23:11:58.467Z,101751.13
2023-05-24T23:14:26.105Z,101745.44
2023-05-24T23:16:54.233Z,101740.28
2023-05-24T23:19:21.591Z,101745.09
2023-05-24T23:21:52.298Z,101744.59
2023-05-24T23:24:19.545Z,101743.97
2023-05-24T23:26:46.804Z,101745.66
2023-05-24T23:29:14.267Z,101747.50
2023-05-24T23:31:41.672Z,101758.25
2023-05-24T23:34:08.925Z,101749.22
2023-05-24T23:36:36.531Z,101754.59
2023-05-24T23:39:03.961Z,101759.88
2023-05-24T23:41:31.457Z,101755.66
2023-05-24T23:43:58.656Z,101756.50
2023-05-24T23:46:25.979Z,101757.06
2023-05-24T23:48:53.219Z,101757.28
2023-05-24T23:51:20.612Z,101759.97
2023-05-24T23:53:47.838Z,101750.91
2023-05-24T23:56:15.127Z,101760.94
2023-05-24T23:58:43.796Z,101752.88
